sensor_id;sensor_type;location;lat;lon;timestamp;P1;durP1;ratioP1;P2;durP2;ratioP2
25437;SDS011;13364;49.084;9.978;2022-08-21T00:00:23;6.10;;;2.90;;
25437;SDS011;13364;49.084;9.978;2022-08-21T00:02:53;6.43;;;3.10;;
25437;SDS011;13364;49.084;9.978;2022-08-21T00:05:22;3.00;;;2.70;;
25437;SDS011;13364;49.084;9.978;2022-08-21T00:07:50;5.65;;;2.65;;
25437;SDS011;13364;49.084;9.978;2022-08-21T00:10:17;4.68;;;2.97;;
25437;SDS011;13364;49.084;9.978;2022-08-21T00:12:45;4.07;;;2.90;;
25437;SDS011;13364;49.084;9.978;2022-08-21T00:15:31;6.60;;;3.38;;
25437;SDS011;13364;49.084;9.978;2022-08-21T00:18:00;4.28;;;3.13;;
25437;SDS011;13364;49.084;9.978;2022-08-21T00:20:27;6.18;;;3.15;;
25437;SDS011;13364;49.084;9.978;2022-08-21T00:22:55;7.30;;;3.22;;
25437;SDS011;13364;49.084;9.978;2022-08-21T00:25:23;6.88;;;3.28;;
25437;SDS011;13364;49.084;9.978;2022-08-21T00:27:51;7.35;;;3.90;;
25437;SDS011;13364;49.084;9.978;2022-08-21T00:30:20;6.07;;;3.60;;
25437;SDS011;13364;49.084;9.978;2022-08-21T00:32:49;3.95;;;3.15;;
25437;SDS011;13364;49.084;9.978;2022-08-21T00:35:18;4.95;;;3.80;;
25437;SDS011;13364;49.084;9.978;2022-08-21T00:37:49;6.75;;;3.55;;
25437;SDS011;13364;49.084;9.978;2022-08-21T00:40:18;4.60;;;3.70;;
25437;SDS011;13364;49.084;9.978;2022-08-21T00:42:48;7.82;;;3.97;;
25437;SDS011;13364;49.084;9.978;2022-08-21T00:45:20;5.57;;;3.80;;
25437;SDS011;13364;49.084;9.978;2022-08-21T00:47:49;5.65;;;4.47;;
25437;SDS011;13364;49.084;9.978;2022-08-21T00:50:17;4.35;;;3.95;;
25437;SDS011;13364;49.084;9.978;2022-08-21T00:57:14;8.45;;;4.20;;
25437;SDS011;13364;49.084;9.978;2022-08-21T00:59:46;6.00;;;4.78;;
25437;SDS011;13364;49.084;9.978;2022-08-21T01:02:16;6.45;;;4.75;;
25437;SDS011;13364;49.084;9.978;2022-08-21T01:04:44;8.80;;;5.25;;
25437;SDS011;13364;49.084;9.978;2022-08-21T01:07:11;7.22;;;4.85;;
25437;SDS011;13364;49.084;9.978;2022-08-21T01:09:39;10.07;;;4.63;;
25437;SDS011;13364;49.084;9.978;2022-08-21T01:12:07;7.05;;;4.78;;
25437;SDS011;13364;49.084;9.978;2022-08-21T01:14:35;6.03;;;5.25;;
25437;SDS011;13364;49.084;9.978;2022-08-21T01:17:03;7.13;;;5.35;;
25437;SDS011;13364;49.084;9.978;2022-08-21T01:19:31;7.20;;;5.10;;
25437;SDS011;13364;49.084;9.978;2022-08-21T01:21:58;8.10;;;5.20;;
25437;SDS011;13364;49.084;9.978;2022-08-21T01:24:26;6.07;;;5.22;;
25437;SDS011;13364;49.084;9.978;2022-08-21T01:26:53;7.65;;;5.60;;
25437;SDS011;13364;49.084;9.978;2022-08-21T01:29:32;7.97;;;5.57;;
25437;SDS011;13364;49.084;9.978;2022-08-21T01:32:18;7.60;;;5.80;;
25437;SDS011;13364;49.084;9.978;2022-08-21T01:34:47;7.27;;;5.20;;
25437;SDS011;13364;49.084;9.978;2022-08-21T01:37:16;9.70;;;6.20;;
25437;SDS011;13364;49.084;9.978;2022-08-21T01:39:44;6.28;;;5.60;;
25437;SDS011;13364;49.084;9.978;2022-08-21T01:42:13;6.20;;;5.60;;
25437;SDS011;13364;49.084;9.978;2022-08-21T01:44:40;7.22;;;5.78;;
25437;SDS011;13364;49.084;9.978;2022-08-21T01:47:09;6.95;;;5.75;;
25437;SDS011;13364;49.084;9.978;2022-08-21T01:49:38;11.40;;;5.60;;
25437;SDS011;13364;49.084;9.978;2022-08-21T01:52:06;6.38;;;5.07;;
25437;SDS011;13364;49.084;9.978;2022-08-21T01:54:35;7.18;;;5.63;;
25437;SDS011;13364;49.084;9.978;2022-08-21T01:57:03;9.40;;;5.25;;
25437;SDS011;13364;49.084;9.978;2022-08-21T01:59:31;8.95;;;4.80;;
25437;SDS011;13364;49.084;9.978;2022-08-21T02:01:59;6.32;;;5.05;;
25437;SDS011;13364;49.084;9.978;2022-08-21T02:04:27;5.57;;;4.95;;
25437;SDS011;13364;49.084;9.978;2022-08-21T02:06:54;10.88;;;6.20;;
25437;SDS011;13364;49.084;9.978;2022-08-21T02:09:21;8.55;;;5.97;;
25437;SDS011;13364;49.084;9.978;2022-08-21T02:11:49;7.97;;;5.88;;
25437;SDS011;13364;49.084;9.978;2022-08-21T02:14:17;7.43;;;6.18;;
25437;SDS011;13364;49.084;9.978;2022-08-21T02:16:58;9.65;;;6.53;;
25437;SDS011;13364;49.084;9.978;2022-08-21T02:19:34;7.63;;;6.60;;
25437;SDS011;13364;49.084;9.978;2022-08-21T02:22:09;9.55;;;6.65;;
25437;SDS011;13364;49.084;9.978;2022-08-21T02:24:37;9.70;;;7.05;;
25437;SDS011;13364;49.084;9.978;2022-08-21T02:27:20;8.70;;;6.90;;
25437;SDS011;13364;49.084;9.978;2022-08-21T02:29:51;10.23;;;7.03;;
25437;SDS011;13364;49.084;9.978;2022-08-21T02:32:19;8.75;;;7.35;;
25437;SDS011;13364;49.084;9.978;2022-08-21T02:34:47;9.07;;;6.57;;
25437;SDS011;13364;49.084;9.978;2022-08-21T02:37:15;12.05;;;6.82;;
25437;SDS011;13364;49.084;9.978;2022-08-21T02:39:42;8.10;;;6.68;;
25437;SDS011;13364;49.084;9.978;2022-08-21T02:42:09;8.45;;;6.85;;
25437;SDS011;13364;49.084;9.978;2022-08-21T02:44:36;10.82;;;7.22;;
25437;SDS011;13364;49.084;9.978;2022-08-21T02:47:03;10.65;;;6.60;;
25437;SDS011;13364;49.084;9.978;2022-08-21T02:49:31;7.93;;;6.55;;
25437;SDS011;13364;49.084;9.978;2022-08-21T02:51:58;7.72;;;6.68;;
25437;SDS011;13364;49.084;9.978;2022-08-21T02:54:25;6.97;;;6.28;;
25437;SDS011;13364;49.084;9.978;2022-08-21T02:56:52;10.32;;;6.63;;
25437;SDS011;13364;49.084;9.978;2022-08-21T02:59:19;14.65;;;6.82;;
25437;SDS011;13364;49.084;9.978;2022-08-21T03:01:46;8.23;;;6.75;;
25437;SDS011;13364;49.084;9.978;2022-08-21T03:04:14;7.45;;;6.60;;
25437;SDS011;13364;49.084;9.978;2022-08-21T03:06:40;7.28;;;6.18;;
25437;SDS011;13364;49.084;9.978;2022-08-21T03:09:07;6.50;;;5.80;;
25437;SDS011;13364;49.084;9.978;2022-08-21T03:11:34;8.93;;;7.20;;
25437;SDS011;13364;49.084;9.978;2022-08-21T03:14:02;7.60;;;6.60;;
25437;SDS011;13364;49.084;9.978;2022-08-21T03:16:31;9.50;;;6.80;;
25437;SDS011;13364;49.084;9.978;2022-08-21T03:19:00;7.15;;;6.03;;
25437;SDS011;13364;49.084;9.978;2022-08-21T03:21:28;8.18;;;6.57;;
25437;SDS011;13364;49.084;9.978;2022-08-21T03:23:55;8.30;;;6.68;;
25437;SDS011;13364;49.084;9.978;2022-08-21T03:26:22;8.27;;;6.53;;
25437;SDS011;13364;49.084;9.978;2022-08-21T03:28:53;10.07;;;7.38;;
25437;SDS011;13364;49.084;9.978;2022-08-21T03:31:20;9.32;;;6.70;;
25437;SDS011;13364;49.084;9.978;2022-08-21T03:33:47;8.90;;;7.40;;
25437;SDS011;13364;49.084;9.978;2022-08-21T03:36:15;10.35;;;6.97;;
25437;SDS011;13364;49.084;9.978;2022-08-21T03:38:42;10.55;;;7.07;;
25437;SDS011;13364;49.084;9.978;2022-08-21T03:41:09;8.60;;;7.13;;
25437;SDS011;13364;49.084;9.978;2022-08-21T03:43:36;8.75;;;7.15;;
25437;SDS011;13364;49.084;9.978;2022-08-21T03:46:05;8.45;;;6.53;;
25437;SDS011;13364;49.084;9.978;2022-08-21T03:48:33;11.05;;;7.55;;
25437;SDS011;13364;49.084;9.978;2022-08-21T03:51:02;8.45;;;7.15;;
25437;SDS011;13364;49.084;9.978;2022-08-21T03:53:29;10.02;;;7.25;;
25437;SDS011;13364;49.084;9.978;2022-08-21T03:55:56;13.85;;;7.63;;
25437;SDS011;13364;49.084;9.978;2022-08-21T03:58:25;9.13;;;7.65;;
25437;SDS011;13364;49.084;9.978;2022-08-21T04:03:22;9.52;;;8.00;;
25437;SDS011;13364;49.084;9.978;2022-08-21T04:05:49;8.93;;;7.22;;
25437;SDS011;13364;49.084;9.978;2022-08-21T04:08:17;11.45;;;7.05;;
25437;SDS011;13364;49.084;9.978;2022-08-21T04:10:45;11.55;;;7.60;;
25437;SDS011;13364;49.084;9.978;2022-08-21T04:13:16;10.07;;;7.20;;
25437;SDS011;13364;49.084;9.978;2022-08-21T04:15:43;10.60;;;6.95;;
25437;SDS011;13364;49.084;9.978;2022-08-21T04:18:10;8.65;;;6.63;;
25437;SDS011;13364;49.084;9.978;2022-08-21T04:20:37;10.10;;;7.05;;
25437;SDS011;13364;49.084;9.978;2022-08-21T04:23:10;7.97;;;6.45;;
25437;SDS011;13364;49.084;9.978;2022-08-21T04:25:49;7.65;;;6.82;;
25437;SDS011;13364;49.084;9.978;2022-08-21T04:28:16;6.85;;;6.15;;
25437;SDS011;13364;49.084;9.978;2022-08-21T04:30:43;9.95;;;7.38;;
25437;SDS011;13364;49.084;9.978;2022-08-21T04:33:11;8.90;;;7.00;;
25437;SDS011;13364;49.084;9.978;2022-08-21T04:35:38;9.27;;;7.00;;
25437;SDS011;13364;49.084;9.978;2022-08-21T04:38:05;10.45;;;6.80;;
25437;SDS011;13364;49.084;9.978;2022-08-21T04:40:32;11.70;;;7.07;;
25437;SDS011;13364;49.084;9.978;2022-08-21T04:43:04;14.68;;;7.45;;
25437;SDS011;13364;49.084;9.978;2022-08-21T04:45:35;9.38;;;7.47;;
25437;SDS011;13364;49.084;9.978;2022-08-21T04:48:05;10.02;;;6.68;;
25437;SDS011;13364;49.084;9.978;2022-08-21T04:50:40;10.20;;;7.47;;
25437;SDS011;13364;49.084;9.978;2022-08-21T04:53:14;11.02;;;7.75;;
25437;SDS011;13364;49.084;9.978;2022-08-21T04:55:50;9.63;;;6.90;;
25437;SDS011;13364;49.084;9.978;2022-08-21T04:58:20;11.90;;;7.20;;
25437;SDS011;13364;49.084;9.978;2022-08-21T05:00:48;8.95;;;7.00;;
25437;SDS011;13364;49.084;9.978;2022-08-21T05:03:17;8.73;;;6.70;;
25437;SDS011;13364;49.084;9.978;2022-08-21T05:05:45;10.68;;;6.53;;
25437;SDS011;13364;49.084;9.978;2022-08-21T05:08:12;10.48;;;7.22;;
25437;SDS011;13364;49.084;9.978;2022-08-21T05:10:42;11.65;;;6.65;;
25437;SDS011;13364;49.084;9.978;2022-08-21T05:13:11;10.13;;;6.40;;
25437;SDS011;13364;49.084;9.978;2022-08-21T05:15:39;7.72;;;5.72;;
25437;SDS011;13364;49.084;9.978;2022-08-21T05:18:07;7.53;;;6.15;;
25437;SDS011;13364;49.084;9.978;2022-08-21T05:20:34;10.93;;;6.00;;
25437;SDS011;13364;49.084;9.978;2022-08-21T05:23:05;11.05;;;6.43;;
25437;SDS011;13364;49.084;9.978;2022-08-21T05:25:37;8.43;;;6.05;;
25437;SDS011;13364;49.084;9.978;2022-08-21T05:28:05;8.75;;;5.95;;
25437;SDS011;13364;49.084;9.978;2022-08-21T05:30:33;10.60;;;6.65;;
25437;SDS011;13364;49.084;9.978;2022-08-21T05:33:02;9.30;;;5.95;;
25437;SDS011;13364;49.084;9.978;2022-08-21T05:35:31;8.40;;;6.10;;
25437;SDS011;13364;49.084;9.978;2022-08-21T05:37:59;9.50;;;5.47;;
25437;SDS011;13364;49.084;9.978;2022-08-21T05:40:26;9.10;;;5.55;;
25437;SDS011;13364;49.084;9.978;2022-08-21T05:42:54;9.25;;;6.25;;
25437;SDS011;13364;49.084;9.978;2022-08-21T05:45:22;6.80;;;5.57;;
25437;SDS011;13364;49.084;9.978;2022-08-21T05:48:10;8.60;;;6.20;;
25437;SDS011;13364;49.084;9.978;2022-08-21T05:50:37;9.27;;;6.03;;
25437;SDS011;13364;49.084;9.978;2022-08-21T05:53:05;8.48;;;5.95;;
25437;SDS011;13364;49.084;9.978;2022-08-21T05:55:33;8.15;;;5.95;;
25437;SDS011;13364;49.084;9.978;2022-08-21T05:58:01;7.10;;;5.45;;
25437;SDS011;13364;49.084;9.978;2022-08-21T06:00:29;6.93;;;5.68;;
25437;SDS011;13364;49.084;9.978;2022-08-21T06:02:56;5.97;;;5.30;;
25437;SDS011;13364;49.084;9.978;2022-08-21T06:05:23;8.27;;;5.80;;
25437;SDS011;13364;49.084;9.978;2022-08-21T06:08:03;8.35;;;5.78;;
25437;SDS011;13364;49.084;9.978;2022-08-21T06:10:30;7.53;;;5.55;;
25437;SDS011;13364;49.084;9.978;2022-08-21T06:12:57;6.70;;;5.45;;
25437;SDS011;13364;49.084;9.978;2022-08-21T06:15:25;8.73;;;6.30;;
25437;SDS011;13364;49.084;9.978;2022-08-21T06:17:52;7.22;;;6.13;;
25437;SDS011;13364;49.084;9.978;2022-08-21T06:20:20;9.32;;;6.18;;
25437;SDS011;13364;49.084;9.978;2022-08-21T06:22:47;6.20;;;5.20;;
25437;SDS011;13364;49.084;9.978;2022-08-21T06:25:15;11.23;;;6.18;;
25437;SDS011;13364;49.084;9.978;2022-08-21T06:27:42;10.35;;;5.70;;
25437;SDS011;13364;49.084;9.978;2022-08-21T06:30:09;7.18;;;5.80;;
25437;SDS011;13364;49.084;9.978;2022-08-21T06:32:36;8.88;;;5.93;;
25437;SDS011;13364;49.084;9.978;2022-08-21T06:35:04;10.30;;;7.43;;
25437;SDS011;13364;49.084;9.978;2022-08-21T06:37:32;10.13;;;7.55;;
25437;SDS011;13364;49.084;9.978;2022-08-21T06:39:59;11.60;;;6.72;;
25437;SDS011;13364;49.084;9.978;2022-08-21T06:42:27;10.50;;;7.70;;
25437;SDS011;13364;49.084;9.978;2022-08-21T06:44:54;10.52;;;7.15;;
25437;SDS011;13364;49.084;9.978;2022-08-21T06:47:22;9.43;;;6.90;;
25437;SDS011;13364;49.084;9.978;2022-08-21T06:52:42;9.75;;;6.78;;
25437;SDS011;13364;49.084;9.978;2022-08-21T06:55:11;12.80;;;6.93;;
25437;SDS011;13364;49.084;9.978;2022-08-21T06:57:47;7.60;;;6.32;;
25437;SDS011;13364;49.084;9.978;2022-08-21T07:00:18;8.20;;;6.78;;
25437;SDS011;13364;49.084;9.978;2022-08-21T07:02:45;10.95;;;6.70;;
25437;SDS011;13364;49.084;9.978;2022-08-21T07:05:12;11.73;;;6.88;;
25437;SDS011;13364;49.084;9.978;2022-08-21T07:07:44;10.35;;;6.45;;
25437;SDS011;13364;49.084;9.978;2022-08-21T07:10:12;8.88;;;6.57;;
25437;SDS011;13364;49.084;9.978;2022-08-21T07:12:47;8.32;;;6.57;;
25437;SDS011;13364;49.084;9.978;2022-08-21T07:15:26;8.88;;;6.82;;
25437;SDS011;13364;49.084;9.978;2022-08-21T07:17:57;10.10;;;6.57;;
25437;SDS011;13364;49.084;9.978;2022-08-21T07:20:26;12.77;;;7.30;;
25437;SDS011;13364;49.084;9.978;2022-08-21T07:22:54;11.13;;;7.20;;
25437;SDS011;13364;49.084;9.978;2022-08-21T07:25:23;7.05;;;6.13;;
25437;SDS011;13364;49.084;9.978;2022-08-21T07:27:50;8.35;;;6.10;;
25437;SDS011;13364;49.084;9.978;2022-08-21T07:30:17;8.80;;;6.65;;
25437;SDS011;13364;49.084;9.978;2022-08-21T07:32:44;8.73;;;6.10;;
25437;SDS011;13364;49.084;9.978;2022-08-21T07:35:12;11.95;;;6.50;;
25437;SDS011;13364;49.084;9.978;2022-08-21T07:37:39;8.40;;;6.53;;
25437;SDS011;13364;49.084;9.978;2022-08-21T07:40:06;9.48;;;7.00;;
25437;SDS011;13364;49.084;9.978;2022-08-21T07:42:34;10.27;;;6.45;;
25437;SDS011;13364;49.084;9.978;2022-08-21T07:45:05;10.65;;;7.47;;
25437;SDS011;13364;49.084;9.978;2022-08-21T07:47:33;10.55;;;7.53;;
25437;SDS011;13364;49.084;9.978;2022-08-21T07:50:08;9.10;;;6.75;;
25437;SDS011;13364;49.084;9.978;2022-08-21T07:52:40;12.32;;;7.40;;
25437;SDS011;13364;49.084;9.978;2022-08-21T07:55:11;9.63;;;6.50;;
25437;SDS011;13364;49.084;9.978;2022-08-21T07:57:40;10.18;;;7.55;;
25437;SDS011;13364;49.084;9.978;2022-08-21T08:00:09;10.30;;;7.10;;
25437;SDS011;13364;49.084;9.978;2022-08-21T08:02:38;10.98;;;6.97;;
25437;SDS011;13364;49.084;9.978;2022-08-21T08:05:08;10.02;;;7.03;;
25437;SDS011;13364;49.084;9.978;2022-08-21T08:07:37;14.15;;;8.38;;
25437;SDS011;13364;49.084;9.978;2022-08-21T08:10:05;10.07;;;7.45;;
25437;SDS011;13364;49.084;9.978;2022-08-21T08:12:37;13.15;;;6.57;;
25437;SDS011;13364;49.084;9.978;2022-08-21T08:15:06;12.10;;;7.70;;
25437;SDS011;13364;49.084;9.978;2022-08-21T08:17:35;10.13;;;7.10;;
25437;SDS011;13364;49.084;9.978;2022-08-21T08:20:05;11.10;;;7.03;;
25437;SDS011;13364;49.084;9.978;2022-08-21T08:22:35;10.23;;;7.88;;
25437;SDS011;13364;49.084;9.978;2022-08-21T08:25:04;7.70;;;6.78;;
25437;SDS011;13364;49.084;9.978;2022-08-21T08:27:35;8.88;;;7.97;;
25437;SDS011;13364;49.084;9.978;2022-08-21T08:30:03;7.70;;;6.90;;
25437;SDS011;13364;49.084;9.978;2022-08-21T08:32:31;10.13;;;7.80;;
25437;SDS011;13364;49.084;9.978;2022-08-21T08:34:58;9.65;;;6.75;;
25437;SDS011;13364;49.084;9.978;2022-08-21T08:37:25;9.68;;;7.30;;
25437;SDS011;13364;49.084;9.978;2022-08-21T08:39:59;8.05;;;7.03;;
25437;SDS011;13364;49.084;9.978;2022-08-21T08:42:32;9.50;;;7.63;;
25437;SDS011;13364;49.084;9.978;2022-08-21T08:45:06;8.32;;;7.07;;
25437;SDS011;13364;49.084;9.978;2022-08-21T08:47:37;11.35;;;7.90;;
25437;SDS011;13364;49.084;9.978;2022-08-21T08:50:11;11.20;;;6.72;;
25437;SDS011;13364;49.084;9.978;2022-08-21T08:52:52;9.45;;;6.45;;
25437;SDS011;13364;49.084;9.978;2022-08-21T08:55:26;7.68;;;6.85;;
25437;SDS011;13364;49.084;9.978;2022-08-21T08:58:01;9.10;;;6.80;;
25437;SDS011;13364;49.084;9.978;2022-08-21T09:00:29;10.25;;;7.47;;
25437;SDS011;13364;49.084;9.978;2022-08-21T09:02:57;10.55;;;6.85;;
25437;SDS011;13364;49.084;9.978;2022-08-21T09:05:28;11.10;;;7.13;;
25437;SDS011;13364;49.084;9.978;2022-08-21T09:24:38;8.68;;;5.60;;
25437;SDS011;13364;49.084;9.978;2022-08-21T09:27:08;7.70;;;5.70;;
25437;SDS011;13364;49.084;9.978;2022-08-21T09:29:44;6.97;;;5.35;;
25437;SDS011;13364;49.084;9.978;2022-08-21T09:32:21;10.80;;;6.13;;
25437;SDS011;13364;49.084;9.978;2022-08-21T09:37:52;8.30;;;5.50;;
25437;SDS011;13364;49.084;9.978;2022-08-21T09:45:41;9.68;;;6.45;;
25437;SDS011;13364;49.084;9.978;2022-08-21T09:50:37;5.38;;;3.72;;
25437;SDS011;13364;49.084;9.978;2022-08-21T09:53:05;6.13;;;3.35;;
25437;SDS011;13364;49.084;9.978;2022-08-21T09:58:37;9.57;;;4.13;;
25437;SDS011;13364;49.084;9.978;2022-08-21T10:01:05;6.90;;;3.88;;
25437;SDS011;13364;49.084;9.978;2022-08-21T10:03:39;6.22;;;4.00;;
25437;SDS011;13364;49.084;9.978;2022-08-21T10:06:07;5.68;;;3.97;;
25437;SDS011;13364;49.084;9.978;2022-08-21T10:12:21;4.38;;;3.58;;
25437;SDS011;13364;49.084;9.978;2022-08-21T10:24:21;7.43;;;4.05;;
25437;SDS011;13364;49.084;9.978;2022-08-21T10:49:20;5.72;;;3.20;;
25437;SDS011;13364;49.084;9.978;2022-08-21T10:52:22;4.65;;;3.55;;
25437;SDS011;13364;49.084;9.978;2022-08-21T10:55:31;8.38;;;3.03;;
25437;SDS011;13364;49.084;9.978;2022-08-21T10:58:11;6.18;;;3.28;;
25437;SDS011;13364;49.084;9.978;2022-08-21T11:00:43;8.05;;;3.15;;
25437;SDS011;13364;49.084;9.978;2022-08-21T11:03:17;6.22;;;3.30;;
25437;SDS011;13364;49.084;9.978;2022-08-21T11:05:58;4.30;;;2.88;;
25437;SDS011;13364;49.084;9.978;2022-08-21T11:08:37;5.97;;;3.17;;
25437;SDS011;13364;49.084;9.978;2022-08-21T11:16:42;7.38;;;4.57;;
25437;SDS011;13364;49.084;9.978;2022-08-21T11:33:31;5.32;;;2.95;;
25437;SDS011;13364;49.084;9.978;2022-08-21T11:45:19;7.30;;;3.13;;
25437;SDS011;13364;49.084;9.978;2022-08-21T11:55:49;6.40;;;2.75;;
25437;SDS011;13364;49.084;9.978;2022-08-21T11:58:30;5.82;;;3.17;;
25437;SDS011;13364;49.084;9.978;2022-08-21T12:01:22;5.93;;;2.47;;
25437;SDS011;13364;49.084;9.978;2022-08-21T12:03:58;6.57;;;2.78;;
25437;SDS011;13364;49.084;9.978;2022-08-21T12:06:31;5.32;;;2.55;;
25437;SDS011;13364;49.084;9.978;2022-08-21T12:09:03;5.15;;;2.88;;
25437;SDS011;13364;49.084;9.978;2022-08-21T12:12:05;4.03;;;2.65;;
25437;SDS011;13364;49.084;9.978;2022-08-21T12:17:16;6.57;;;3.30;;
25437;SDS011;13364;49.084;9.978;2022-08-21T12:19:58;5.28;;;2.20;;
25437;SDS011;13364;49.084;9.978;2022-08-21T12:22:39;4.88;;;2.45;;
25437;SDS011;13364;49.084;9.978;2022-08-21T12:25:11;3.63;;;2.42;;
25437;SDS011;13364;49.084;9.978;2022-08-21T12:27:49;4.13;;;2.53;;
25437;SDS011;13364;49.084;9.978;2022-08-21T12:30:40;5.22;;;2.20;;
25437;SDS011;13364;49.084;9.978;2022-08-21T12:33:22;2.65;;;2.33;;
25437;SDS011;13364;49.084;9.978;2022-08-21T12:35:52;2.97;;;2.30;;
25437;SDS011;13364;49.084;9.978;2022-08-21T12:38:28;2.63;;;2.42;;
25437;SDS011;13364;49.084;9.978;2022-08-21T12:41:06;5.43;;;2.42;;
25437;SDS011;13364;49.084;9.978;2022-08-21T12:43:44;5.57;;;2.65;;
25437;SDS011;13364;49.084;9.978;2022-08-21T12:46:16;3.28;;;2.28;;
25437;SDS011;13364;49.084;9.978;2022-08-21T12:48:51;4.15;;;2.60;;
25437;SDS011;13364;49.084;9.978;2022-08-21T12:51:24;3.75;;;2.22;;
25437;SDS011;13364;49.084;9.978;2022-08-21T12:53:57;5.65;;;2.72;;
25437;SDS011;13364;49.084;9.978;2022-08-21T12:56:28;3.70;;;2.30;;
25437;SDS011;13364;49.084;9.978;2022-08-21T12:59:02;4.47;;;2.40;;
25437;SDS011;13364;49.084;9.978;2022-08-21T13:01:45;5.10;;;2.70;;
25437;SDS011;13364;49.084;9.978;2022-08-21T13:04:16;2.85;;;2.55;;
25437;SDS011;13364;49.084;9.978;2022-08-21T13:07:00;3.67;;;2.30;;
25437;SDS011;13364;49.084;9.978;2022-08-21T13:09:28;3.17;;;2.20;;
25437;SDS011;13364;49.084;9.978;2022-08-21T13:17:14;5.85;;;2.53;;
25437;SDS011;13364;49.084;9.978;2022-08-21T13:19:58;5.28;;;2.10;;
25437;SDS011;13364;49.084;9.978;2022-08-21T13:22:27;6.10;;;2.58;;
25437;SDS011;13364;49.084;9.978;2022-08-21T13:25:01;2.58;;;2.00;;
25437;SDS011;13364;49.084;9.978;2022-08-21T13:27:32;4.05;;;2.53;;
25437;SDS011;13364;49.084;9.978;2022-08-21T13:30:05;3.63;;;2.30;;
25437;SDS011;13364;49.084;9.978;2022-08-21T13:32:34;3.78;;;2.10;;
25437;SDS011;13364;49.084;9.978;2022-08-21T13:35:10;5.47;;;2.80;;
25437;SDS011;13364;49.084;9.978;2022-08-21T13:37:46;4.68;;;2.60;;
25437;SDS011;13364;49.084;9.978;2022-08-21T13:40:20;2.60;;;2.20;;
25437;SDS011;13364;49.084;9.978;2022-08-21T13:42:55;5.15;;;2.50;;
25437;SDS011;13364;49.084;9.978;2022-08-21T13:45:25;3.95;;;2.38;;
25437;SDS011;13364;49.084;9.978;2022-08-21T13:48:02;3.17;;;2.17;;
25437;SDS011;13364;49.084;9.978;2022-08-21T13:50:32;7.60;;;2.40;;
25437;SDS011;13364;49.084;9.978;2022-08-21T13:53:04;4.97;;;2.10;;
25437;SDS011;13364;49.084;9.978;2022-08-21T13:55:40;3.80;;;2.17;;
25437;SDS011;13364;49.084;9.978;2022-08-21T13:58:10;2.38;;;2.10;;
25437;SDS011;13364;49.084;9.978;2022-08-21T14:00:48;4.07;;;2.25;;
25437;SDS011;13364;49.084;9.978;2022-08-21T14:06:20;2.13;;;1.77;;
25437;SDS011;13364;49.084;9.978;2022-08-21T14:08:50;2.03;;;1.63;;
25437;SDS011;13364;49.084;9.978;2022-08-21T14:11:25;2.95;;;1.98;;
25437;SDS011;13364;49.084;9.978;2022-08-21T14:16:22;4.00;;;2.30;;
25437;SDS011;13364;49.084;9.978;2022-08-21T14:18:53;4.00;;;2.10;;
25437;SDS011;13364;49.084;9.978;2022-08-21T14:24:41;2.38;;;2.00;;
25437;SDS011;13364;49.084;9.978;2022-08-21T14:26:51;4.88;;;2.22;;
25437;SDS011;13364;49.084;9.978;2022-08-21T14:29:21;4.90;;;2.17;;
25437;SDS011;13364;49.084;9.978;2022-08-21T14:31:53;2.92;;;2.08;;
25437;SDS011;13364;49.084;9.978;2022-08-21T14:34:24;3.67;;;2.20;;
25437;SDS011;13364;49.084;9.978;2022-08-21T14:36:58;5.78;;;2.20;;
25437;SDS011;13364;49.084;9.978;2022-08-21T14:39:25;2.28;;;2.08;;
25437;SDS011;13364;49.084;9.978;2022-08-21T14:41:52;4.10;;;2.15;;
25437;SDS011;13364;49.084;9.978;2022-08-21T14:44:20;3.15;;;2.22;;
25437;SDS011;13364;49.084;9.978;2022-08-21T14:46:48;4.55;;;2.40;;
25437;SDS011;13364;49.084;9.978;2022-08-21T14:49:23;3.78;;;2.20;;
25437;SDS011;13364;49.084;9.978;2022-08-21T14:51:53;2.63;;;2.22;;
25437;SDS011;13364;49.084;9.978;2022-08-21T14:54:28;3.78;;;2.47;;
25437;SDS011;13364;49.084;9.978;2022-08-21T14:57:08;3.75;;;2.38;;
25437;SDS011;13364;49.084;9.978;2022-08-21T14:59:38;3.97;;;2.75;;
25437;SDS011;13364;49.084;9.978;2022-08-21T15:02:06;4.55;;;2.60;;
25437;SDS011;13364;49.084;9.978;2022-08-21T15:04:34;3.03;;;2.70;;
25437;SDS011;13364;49.084;9.978;2022-08-21T15:07:01;4.53;;;2.70;;
25437;SDS011;13364;49.084;9.978;2022-08-21T15:09:29;3.95;;;2.42;;
25437;SDS011;13364;49.084;9.978;2022-08-21T15:11:57;3.67;;;2.60;;
25437;SDS011;13364;49.084;9.978;2022-08-21T15:14:27;3.10;;;2.40;;
25437;SDS011;13364;49.084;9.978;2022-08-21T15:16:56;3.20;;;2.78;;
25437;SDS011;13364;49.084;9.978;2022-08-21T15:19:23;2.75;;;2.20;;
25437;SDS011;13364;49.084;9.978;2022-08-21T15:21:51;4.10;;;2.50;;
25437;SDS011;13364;49.084;9.978;2022-08-21T15:24:18;3.67;;;2.70;;
25437;SDS011;13364;49.084;9.978;2022-08-21T15:26:45;5.70;;;2.83;;
25437;SDS011;13364;49.084;9.978;2022-08-21T15:29:13;4.07;;;2.55;;
25437;SDS011;13364;49.084;9.978;2022-08-21T15:34:28;2.60;;;2.40;;
25437;SDS011;13364;49.084;9.978;2022-08-21T15:36:57;3.30;;;2.55;;
25437;SDS011;13364;49.084;9.978;2022-08-21T15:39:25;6.43;;;2.50;;
25437;SDS011;13364;49.084;9.978;2022-08-21T15:41:57;5.03;;;3.22;;
25437;SDS011;13364;49.084;9.978;2022-08-21T15:44:25;4.00;;;2.53;;
25437;SDS011;13364;49.084;9.978;2022-08-21T15:46:53;6.97;;;2.63;;
25437;SDS011;13364;49.084;9.978;2022-08-21T15:49:22;4.65;;;2.40;;
25437;SDS011;13364;49.084;9.978;2022-08-21T15:51:49;4.93;;;2.90;;
25437;SDS011;13364;49.084;9.978;2022-08-21T15:54:16;3.95;;;2.72;;
25437;SDS011;13364;49.084;9.978;2022-08-21T15:56:44;4.20;;;2.72;;
25437;SDS011;13364;49.084;9.978;2022-08-21T15:59:15;4.50;;;2.70;;
25437;SDS011;13364;49.084;9.978;2022-08-21T16:01:46;3.95;;;2.47;;
25437;SDS011;13364;49.084;9.978;2022-08-21T16:04:18;3.70;;;2.72;;
25437;SDS011;13364;49.084;9.978;2022-08-21T16:06:51;3.28;;;2.38;;
25437;SDS011;13364;49.084;9.978;2022-08-21T16:09:27;3.45;;;2.53;;
25437;SDS011;13364;49.084;9.978;2022-08-21T16:11:54;6.35;;;3.08;;
25437;SDS011;13364;49.084;9.978;2022-08-21T16:14:21;3.30;;;2.78;;
25437;SDS011;13364;49.084;9.978;2022-08-21T16:16:48;3.75;;;2.50;;
25437;SDS011;13364;49.084;9.978;2022-08-21T16:19:15;3.05;;;2.38;;
25437;SDS011;13364;49.084;9.978;2022-08-21T16:21:42;5.25;;;2.78;;
25437;SDS011;13364;49.084;9.978;2022-08-21T16:24:10;6.18;;;2.75;;
25437;SDS011;13364;49.084;9.978;2022-08-21T16:26:37;3.80;;;2.47;;
25437;SDS011;13364;49.084;9.978;2022-08-21T16:29:05;4.38;;;2.60;;
25437;SDS011;13364;49.084;9.978;2022-08-21T16:31:34;7.47;;;2.67;;
25437;SDS011;13364;49.084;9.978;2022-08-21T16:34:01;6.07;;;2.60;;
25437;SDS011;13364;49.084;9.978;2022-08-21T16:36:28;4.57;;;2.60;;
25437;SDS011;13364;49.084;9.978;2022-08-21T16:38:56;5.55;;;2.80;;
25437;SDS011;13364;49.084;9.978;2022-08-21T16:41:25;4.82;;;2.53;;
25437;SDS011;13364;49.084;9.978;2022-08-21T16:43:56;3.35;;;2.90;;
25437;SDS011;13364;49.084;9.978;2022-08-21T16:46:31;5.18;;;3.13;;
25437;SDS011;13364;49.084;9.978;2022-08-21T16:49:04;4.18;;;2.58;;
25437;SDS011;13364;49.084;9.978;2022-08-21T16:51:31;5.28;;;2.80;;
25437;SDS011;13364;49.084;9.978;2022-08-21T16:53:59;3.33;;;2.65;;
25437;SDS011;13364;49.084;9.978;2022-08-21T16:56:26;5.00;;;2.58;;
25437;SDS011;13364;49.084;9.978;2022-08-21T16:58:54;4.82;;;2.53;;
25437;SDS011;13364;49.084;9.978;2022-08-21T17:01:24;6.20;;;3.10;;
25437;SDS011;13364;49.084;9.978;2022-08-21T17:03:55;3.95;;;2.67;;
25437;SDS011;13364;49.084;9.978;2022-08-21T17:06:23;3.75;;;2.88;;
25437;SDS011;13364;49.084;9.978;2022-08-21T17:08:54;3.70;;;2.50;;
25437;SDS011;13364;49.084;9.978;2022-08-21T17:11:25;4.30;;;2.75;;
25437;SDS011;13364;49.084;9.978;2022-08-21T17:14:04;3.50;;;2.40;;
25437;SDS011;13364;49.084;9.978;2022-08-21T17:16:46;4.68;;;2.72;;